Time;durP1;ratioP1;P1;durP2;ratioP2;P2;SDS_P1;SDS_P2;PMS_P1;PMS_P2;Temp;Humidity;BMP_temperature;BMP_pressure;BME280_temperature;BME280_humidity;BME280_pressure;Samples;Min_cycle;Max_cycle;Signal;HPM_P1;HPM_P2
2022/06/09 01:23:02;;;;;;;;;;;;;;;11.86;91.15;96642.84;5087193;28;20537;-63
2022/06/09 01:25:28;;;;;;;;;;;;;;;11.84;91.14;96658.84;5030448;28;19931;-64
2022/06/09 01:28:05;;;;;;;;;;;;;;;11.80;91.25;96646.78;5030540;28;20303;-63
2022/06/09 01:30:41;;;;;;;;;;;;;;;11.80;91.06;96643.25;5032328;28;19917;-63
2022/06/09 01:33:10;;;;;;;;;;;;;;;11.79;91.28;96636.91;5032480;28;19919;-64
2022/06/09 01:35:38;;;;;;;;;;;;;;;11.77;91.30;96644.63;5014322;28;20008;-61
2022/06/09 01:38:04;;;;;;;;;;;;;;;11.74;91.38;96646.03;5032302;28;20408;-63
2022/06/09 01:40:29;;;;;;;;;;;;;;;11.75;91.36;96647.69;5032094;28;19964;-64
2022/06/09 01:42:56;;;;;;;;;;;;;;;11.78;91.36;96662.78;5032100;28;19917;-64
2022/06/09 01:45:23;;;;;;;;;;;;;;;11.81;91.55;96653.94;5031633;28;20003;-63
2022/06/09 01:47:54;;;;;;;;;;;;;;;11.82;91.53;96658.34;5031957;28;19970;-63
2022/06/09 01:50:40;;;;;;;;;;;;;;;11.77;91.25;96647.38;5032172;28;20044;-62
2022/06/09 01:53:10;;;;;;;;;;;;;;;11.73;91.53;96647.19;5029909;28;19917;-63
2022/06/09 01:55:38;;;;;;;;;;;;;;;11.72;91.31;96652.97;5032164;28;19917;-63
2022/06/09 01:58:05;;;;;;;;;;;;;;;11.66;91.32;96651.38;5032066;28;19917;-61
2022/06/09 02:00:31;;;;;;;;;;;;;;;11.58;91.33;96650.91;5032254;28;20084;-65
2022/06/09 02:03:07;;;;;;;;;;;;;;;11.53;91.29;96651.00;5032195;28;20003;-64
2022/06/09 02:05:37;;;;;;;;;;;;;;;11.44;91.48;96655.50;5032142;28;19924;-63
2022/06/09 02:08:04;;;;;;;;;;;;;;;11.40;91.77;96648.97;5031770;28;19924;-65
2022/06/09 02:10:40;;;;;;;;;;;;;;;11.40;91.96;96647.03;5031975;28;19924;-63
2022/06/09 02:13:07;;;;;;;;;;;;;;;11.42;91.92;96652.22;5023918;28;19928;-63
2022/06/09 02:15:36;;;;;;;;;;;;;;;11.43;92.13;96642.88;5024754;28;19917;-63
2022/06/09 02:18:10;;;;;;;;;;;;;;;11.47;92.20;96654.09;5017392;28;19928;-62
2022/06/09 02:20:41;;;;;;;;;;;;;;;11.42;92.03;96652.22;5034956;28;20395;-64
2022/06/09 02:23:07;;;;;;;;;;;;;;;11.36;91.84;96653.41;5036902;28;19923;-63
2022/06/09 02:25:33;;;;;;;;;;;;;;;11.34;91.92;96652.88;5055522;28;20301;-63
2022/06/09 02:27:58;;;;;;;;;;;;;;;11.29;91.83;96650.19;5075550;28;19916;-64
2022/06/09 02:30:24;;;;;;;;;;;;;;;11.27;92.14;96653.22;5070469;28;20012;-63
2022/06/09 02:32:50;;;;;;;;;;;;;;;11.25;92.33;96651.88;5075030;28;19917;-63
2022/06/09 02:35:15;;;;;;;;;;;;;;;11.18;91.99;96658.53;5075024;28;20439;-64
2022/06/09 02:37:40;;;;;;;;;;;;;;;11.21;92.23;96654.41;5075218;28;19970;-64
2022/06/09 02:40:06;;;;;;;;;;;;;;;11.30;92.36;96658.13;5075361;28;19920;-64
2022/06/09 02:42:32;;;;;;;;;;;;;;;11.34;92.38;96652.88;5074865;28;19916;-64
2022/06/09 02:44:57;;;;;;;;;;;;;;;11.38;92.41;96654.75;5075037;28;20011;-64
2022/06/09 02:47:23;;;;;;;;;;;;;;;11.39;92.61;96658.31;5075143;28;19923;-64
2022/06/09 02:49:48;;;;;;;;;;;;;;;11.47;92.48;96663.16;5074846;28;19916;-64
2022/06/09 02:52:13;;;;;;;;;;;;;;;11.43;92.44;96662.13;5073649;28;19923;-63
2022/06/09 02:54:39;;;;;;;;;;;;;;;11.37;92.06;96660.53;5074588;28;19920;-63
2022/06/09 02:57:04;;;;;;;;;;;;;;;11.34;92.15;96658.38;5074967;28;19924;-63
2022/06/09 02:59:30;;;;;;;;;;;;;;;11.36;92.38;96656.16;5075067;28;19916;-63
2022/06/09 03:01:55;;;;;;;;;;;;;;;11.42;92.62;96662.41;5074634;28;20003;-63
2022/06/09 03:04:21;;;;;;;;;;;;;;;11.45;92.57;96665.38;5074504;28;20001;-64
2022/06/09 03:06:46;;;;;;;;;;;;;;;11.43;92.29;96659.38;5074582;28;19990;-64
2022/06/09 03:09:12;;;;;;;;;;;;;;;11.45;92.42;96665.38;5074556;28;19951;-64
2022/06/09 03:11:37;;;;;;;;;;;;;;;11.43;92.59;96662.13;5074760;28;20456;-66
2022/06/09 03:14:03;;;;;;;;;;;;;;;11.48;92.51;96666.72;5074397;28;19952;-63
2022/06/09 03:16:28;;;;;;;;;;;;;;;11.48;92.42;96663.97;5074533;28;19943;-64
2022/06/09 03:18:53;;;;;;;;;;;;;;;11.46;92.34;96666.22;5074644;28;20015;-63
2022/06/09 03:21:19;;;;;;;;;;;;;;;11.47;92.28;96674.16;5074507;28;19920;-64
2022/06/09 03:23:44;;;;;;;;;;;;;;;11.53;92.55;96663.94;5072292;28;19920;-64
2022/06/09 03:26:10;;;;;;;;;;;;;;;11.58;92.64;96674.84;5068013;28;19931;-65
2022/06/09 03:28:37;;;;;;;;;;;;;;;11.61;92.46;96667.94;5069289;28;19924;-65
2022/06/09 03:31:02;;;;;;;;;;;;;;;11.65;92.49;96669.00;5065532;28;19920;-63
2022/06/09 03:33:28;;;;;;;;;;;;;;;11.72;92.37;96666.72;5074168;28;20371;-63
2022/06/09 03:35:53;;;;;;;;;;;;;;;11.72;92.60;96670.28;5074134;28;19916;-63
2022/06/09 03:38:19;;;;;;;;;;;;;;;11.66;92.18;96676.13;5074180;28;19939;-65
2022/06/09 03:40:44;;;;;;;;;;;;;;;11.65;92.11;96674.50;5074307;28;19985;-63
2022/06/09 03:43:10;;;;;;;;;;;;;;;11.64;92.27;96672.84;5074034;28;19924;-64
2022/06/09 03:45:35;;;;;;;;;;;;;;;11.61;92.04;96673.44;5074252;28;19916;-65
2022/06/09 03:48:01;;;;;;;;;;;;;;;11.53;92.29;96678.47;5073704;28;19917;-64
2022/06/09 03:50:28;;;;;;;;;;;;;;;11.55;92.13;96664.44;5074072;28;19916;-65
2022/06/09 03:52:53;;;;;;;;;;;;;;;11.57;92.31;96679.53;5056075;28;19916;-65
2022/06/09 03:55:19;;;;;;;;;;;;;;;11.55;92.26;96676.25;5074505;28;19928;-65
2022/06/09 03:57:45;;;;;;;;;;;;;;;11.54;92.06;96674.63;5073933;28;20283;-64
2022/06/09 04:00:13;;;;;;;;;;;;;;;11.51;92.03;96675.22;5074014;28;19995;-64
2022/06/09 04:02:39;;;;;;;;;;;;;;;11.51;92.46;96677.97;5074018;28;19923;-64
2022/06/09 04:05:05;;;;;;;;;;;;;;;11.47;92.41;96674.16;5073841;28;20290;-65
2022/06/09 04:07:30;;;;;;;;;;;;;;;11.53;92.32;96683.97;5073707;28;20386;-64
2022/06/09 04:09:55;;;;;;;;;;;;;;;11.57;92.51;96682.28;5073655;28;20394;-64
2022/06/09 04:12:21;;;;;;;;;;;;;;;11.64;92.75;96684.66;5062813;28;19918;-64
2022/06/09 04:14:47;;;;;;;;;;;;;;;11.66;92.42;96685.19;5072797;28;20014;-65
2022/06/09 04:17:12;;;;;;;;;;;;;;;11.66;92.53;96687.13;5062713;28;20397;-65
2022/06/09 04:19:38;;;;;;;;;;;;;;;11.67;92.48;96683.25;5071713;28;20026;-66
2022/06/09 04:22:05;;;;;;;;;;;;;;;11.71;92.44;96690.63;5073455;28;19916;-64
2022/06/09 04:24:30;;;;;;;;;;;;;;;11.74;92.38;96701.03;5073161;28;19925;-64
2022/06/09 04:26:56;;;;;;;;;;;;;;;11.75;92.37;96707.38;5073244;28;20271;-64
2022/06/09 04:29:21;;;;;;;;;;;;;;;11.76;92.50;96703.47;5073321;28;20386;-65
2022/06/09 04:31:46;;;;;;;;;;;;;;;11.73;92.33;96701.31;5073312;28;19922;-64
2022/06/09 04:34:12;;;;;;;;;;;;;;;11.66;92.48;96712.69;5073013;28;20140;-65
2022/06/09 04:36:37;;;;;;;;;;;;;;;11.61;92.37;96709.19;5072497;28;19922;-66
2022/06/09 04:39:04;;;;;;;;;;;;;;;11.60;92.55;96710.28;5073219;28;20394;-66
2022/06/09 04:41:29;;;;;;;;;;;;;;;11.67;92.66;96708.81;5073549;28;19920;-67
2022/06/09 04:43:57;;;;;;;;;;;;;;;11.69;92.86;96712.09;5072573;28;19978;-66
2022/06/09 04:46:23;;;;;;;;;;;;;;;11.73;92.81;96707.66;5072574;28;20007;-65
2022/06/09 04:48:48;;;;;;;;;;;;;;;11.76;92.60;96714.47;5072950;28;19916;-65
2022/06/09 04:51:16;;;;;;;;;;;;;;;11.78;92.62;96722.44;5072884;28;20008;-66
2022/06/09 04:53:42;;;;;;;;;;;;;;;11.79;92.66;96713.88;5072953;28;20362;-66
2022/06/09 04:56:09;;;;;;;;;;;;;;;11.89;92.80;96719.25;5073264;28;20011;-66
2022/06/09 04:58:34;;;;;;;;;;;;;;;12.02;93.13;96716.94;5073080;28;20014;-66
2022/06/09 05:00:59;;;;;;;;;;;;;;;12.09;92.61;96718.22;5073129;28;20003;-65
2022/06/09 05:03:25;;;;;;;;;;;;;;;12.07;92.62;96725.94;5073261;28;19931;-64
2022/06/09 05:05:51;;;;;;;;;;;;;;;12.03;92.69;96724.09;5072831;28;19923;-66
2022/06/09 05:08:16;;;;;;;;;;;;;;;11.94;92.37;96720.34;5072905;28;19916;-65
2022/06/09 05:10:43;;;;;;;;;;;;;;;11.89;92.70;96734.94;5072808;28;19923;-64
2022/06/09 05:13:09;;;;;;;;;;;;;;;11.87;92.96;96737.19;5069820;28;19916;-64
2022/06/09 05:15:43;;;;;;;;;;;;;;;11.86;92.78;96735.53;5072449;28;19916;-66
2022/06/09 05:18:11;;;;;;;;;;;;;;;11.85;92.78;96734.72;5067918;28;20000;-65
2022/06/09 05:20:36;;;;;;;;;;;;;;;11.86;92.78;96741.84;5072156;28;19920;-64
2022/06/09 05:23:02;;;;;;;;;;;;;;;11.86;92.79;96738.28;5071655;28;20448;-65
2022/06/09 05:25:27;;;;;;;;;;;;;;;11.90;92.91;96739.34;5072320;28;19920;-65
2022/06/09 05:27:53;;;;;;;;;;;;;;;12.03;93.09;96741.41;5072750;28;19917;-63
2022/06/09 05:30:20;;;;;;;;;;;;;;;12.23;93.26;96745.81;5072368;28;19927;-65
2022/06/09 05:32:46;;;;;;;;;;;;;;;12.32;92.87;96736.88;5072448;28;19920;-65
2022/06/09 05:35:11;;;;;;;;;;;;;;;12.38;93.00;96744.78;5072600;28;20389;-66
2022/06/09 05:45:49;;;;;;;;;;;;;;;12.83;92.64;96738.84;5062667;28;19962;-65
2022/06/09 05:48:14;;;;;;;;;;;;;;;12.92;92.71;96750.81;5057320;28;19924;-65
2022/06/09 05:50:40;;;;;;;;;;;;;;;12.99;92.42;96749.63;5055376;28;20329;-66
2022/06/09 05:53:05;;;;;;;;;;;;;;;13.14;92.75;96752.13;5055213;28;20391;-66
2022/06/09 05:55:31;;;;;;;;;;;;;;;13.13;92.17;96744.97;5054954;28;19951;-65
2022/06/09 05:57:57;;;;;;;;;;;;;;;13.07;91.81;96751.69;5055248;28;20492;-65
2022/06/09 06:00:22;;;;;;;;;;;;;;;12.97;91.70;96753.50;5055303;28;20275;-64
2022/06/09 06:02:48;;;;;;;;;;;;;;;12.88;91.82;96758.06;5055178;28;20043;-65
2022/06/09 06:07:57;;;;;;;;;;;;;;;12.98;91.95;96759.81;5055148;28;19954;-66
2022/06/09 06:10:22;;;;;;;;;;;;;;;13.09;92.04;96754.97;5055005;28;19917;-66
2022/06/09 06:12:48;;;;;;;;;;;;;;;13.01;91.35;96755.66;5054859;28;19908;-64
2022/06/09 06:15:13;;;;;;;;;;;;;;;13.05;91.71;96762.19;5054387;28;19969;-64
2022/06/09 06:17:38;;;;;;;;;;;;;;;13.07;91.93;96766.31;5054950;28;19946;-66
2022/06/09 06:20:04;;;;;;;;;;;;;;;12.88;91.46;96763.59;5054553;28;20023;-64
2022/06/09 06:22:29;;;;;;;;;;;;;;;12.72;91.45;96782.28;5053275;28;19916;-65
2022/06/09 06:24:55;;;;;;;;;;;;;;;12.50;91.73;96774.63;5054663;28;19921;-65
2022/06/09 06:27:20;;;;;;;;;;;;;;;12.31;91.75;96774.59;5060412;28;19920;-66
2022/06/09 06:29:46;;;;;;;;;;;;;;;12.21;92.26;96774.75;5074519;28;19920;-67
2022/06/09 06:32:11;;;;;;;;;;;;;;;12.10;91.76;96785.03;5074083;28;19970;-69
2022/06/09 06:34:37;;;;;;;;;;;;;;;11.96;91.75;96784.13;5074093;28;20407;-70
2022/06/09 06:37:02;;;;;;;;;;;;;;;11.90;92.24;96791.59;5074387;28;19917;-71
2022/06/09 06:39:28;;;;;;;;;;;;;;;11.81;92.28;96790.59;5074376;28;19977;-71
2022/06/09 06:41:53;;;;;;;;;;;;;;;11.78;92.56;96797.50;5074418;28;19917;-70
2022/06/09 06:44:19;;;;;;;;;;;;;;;11.88;92.87;96791.03;5071049;28;20395;-69
2022/06/09 06:46:44;;;;;;;;;;;;;;;11.97;92.87;96788.50;5070796;28;19916;-70
2022/06/09 06:49:10;;;;;;;;;;;;;;;12.03;93.12;96795.59;5074146;28;19916;-69
2022/06/09 06:51:36;;;;;;;;;;;;;;;12.12;92.90;96798.50;5074158;28;19913;-67
2022/06/09 06:54:04;;;;;;;;;;;;;;;12.29;92.85;96798.03;5074554;28;19916;-67
2022/06/09 06:56:30;;;;;;;;;;;;;;;12.48;92.99;96800.78;5073905;28;19924;-68
2022/06/09 06:58:56;;;;;;;;;;;;;;;12.74;92.92;96799.31;5073480;28;19916;-67
2022/06/09 07:01:21;;;;;;;;;;;;;;;12.80;92.49;96802.81;5069315;28;19920;-67
2022/06/09 07:03:46;;;;;;;;;;;;;;;12.80;92.36;96819.31;5075054;28;19930;-66
2022/06/09 07:06:12;;;;;;;;;;;;;;;12.68;92.20;96816.22;5074831;28;19923;-66
2022/06/09 07:08:37;;;;;;;;;;;;;;;12.61;92.24;96816.56;5074790;28;19920;-67
2022/06/09 07:11:04;;;;;;;;;;;;;;;12.67;92.65;96820.06;5056339;28;20318;-66
2022/06/09 07:13:29;;;;;;;;;;;;;;;12.84;92.77;96828.63;5074401;28;20294;-66
2022/06/09 07:15:55;;;;;;;;;;;;;;;12.98;92.30;96823.19;5074795;28;19916;-65
2022/06/09 07:18:20;;;;;;;;;;;;;;;13.09;92.49;96824.66;5072202;28;19920;-66
2022/06/09 07:20:46;;;;;;;;;;;;;;;13.09;92.23;96830.19;5054556;28;20440;-64
2022/06/09 07:23:12;;;;;;;;;;;;;;;13.06;92.10;96838.22;5054699;28;19916;-65
2022/06/09 07:25:38;;;;;;;;;;;;;;;12.99;92.55;96837.78;5054784;28;19921;-66
2022/06/09 07:28:04;;;;;;;;;;;;;;;13.04;92.86;96846.78;5053277;28;20406;-65
2022/06/09 07:30:29;;;;;;;;;;;;;;;13.35;93.41;96840.00;5058168;28;20337;-65
2022/06/09 07:32:55;;;;;;;;;;;;;;;13.55;93.02;96842.41;5074234;28;19916;-65
2022/06/09 07:35:22;;;;;;;;;;;;;;;13.56;92.85;96840.44;5073439;28;20407;-65
2022/06/09 07:37:47;;;;;;;;;;;;;;;13.57;92.46;96845.66;5066912;28;19924;-64
2022/06/09 07:40:13;;;;;;;;;;;;;;;13.99;92.85;96852.06;5072637;28;20055;-65
2022/06/09 07:42:39;;;;;;;;;;;;;;;14.37;93.28;96851.88;5068312;28;19928;-64
2022/06/09 07:45:06;;;;;;;;;;;;;;;14.57;92.80;96855.34;5056412;28;19920;-66
2022/06/09 07:47:31;;;;;;;;;;;;;;;14.65;92.13;96854.66;5072372;28;19916;-67
2022/06/09 07:49:57;;;;;;;;;;;;;;;14.85;92.08;96858.06;5073893;28;19923;-64
2022/06/09 07:52:22;;;;;;;;;;;;;;;15.00;91.42;96859.69;5073850;28;20255;-65
2022/06/09 07:54:48;;;;;;;;;;;;;;;15.08;91.37;96861.72;5067790;28;20315;-66
2022/06/09 07:57:33;;;;;;;;;;;;;;;14.92;90.94;96861.25;5064445;28;20019;-64
2022/06/09 08:00:18;;;;;;;;;;;;;;;14.78;91.03;96855.75;5053664;28;20016;-63
2022/06/09 08:02:44;;;;;;;;;;;;;;;14.89;91.48;96859.91;5063885;28;19920;-62
2022/06/09 08:05:10;;;;;;;;;;;;;;;15.25;91.90;96852.72;5068018;28;19923;-62
2022/06/09 08:07:35;;;;;;;;;;;;;;;15.54;91.44;96854.25;5053631;28;19923;-64
2022/06/09 08:10:02;;;;;;;;;;;;;;;15.58;91.47;96863.56;5053599;28;19928;-62
2022/06/09 08:12:27;;;;;;;;;;;;;;;15.58;91.39;96852.50;5053415;28;19917;-64
2022/06/09 08:14:53;;;;;;;;;;;;;;;15.65;91.33;96855.63;5056080;28;19975;-61
2022/06/09 08:17:19;;;;;;;;;;;;;;;15.65;90.51;96861.16;5069375;28;19920;-63
2022/06/09 08:19:46;;;;;;;;;;;;;;;15.40;89.77;96846.03;5058535;28;19920;-62
2022/06/09 08:22:12;;;;;;;;;;;;;;;15.24;90.21;96860.22;5071348;28;19982;-64
2022/06/09 08:24:37;;;;;;;;;;;;;;;15.18;90.50;96861.47;5072989;28;20391;-64
2022/06/09 08:27:03;;;;;;;;;;;;;;;15.20;90.72;96858.38;5070963;28;20429;-64
2022/06/09 08:29:29;;;;;;;;;;;;;;;15.14;90.60;96851.34;5072469;28;19919;-65
2022/06/09 08:31:55;;;;;;;;;;;;;;;15.11;90.44;96851.97;5072452;28;20460;-63
2022/06/09 08:34:20;;;;;;;;;;;;;;;15.11;90.81;96854.75;5072949;28;19924;-64
2022/06/09 08:36:45;;;;;;;;;;;;;;;15.23;91.16;96855.00;5072911;28;20294;-62
2022/06/09 08:39:11;;;;;;;;;;;;;;;15.35;90.83;96854.44;5073014;28;20351;-63
2022/06/09 08:41:36;;;;;;;;;;;;;;;15.61;91.04;96862.91;5073083;28;19916;-63
2022/06/09 08:44:04;;;;;;;;;;;;;;;15.72;90.38;96853.22;5072499;28;19916;-62
2022/06/09 08:46:39;;;;;;;;;;;;;;;15.84;90.46;96860.16;5072775;28;19917;-63
2022/06/09 08:49:09;;;;;;;;;;;;;;;15.63;89.62;96866.19;5072701;28;20010;-63
2022/06/09 08:51:42;;;;;;;;;;;;;;;15.60;89.39;96866.81;5072983;28;19942;-62
2022/06/09 08:54:13;;;;;;;;;;;;;;;15.77;89.37;96850.31;5072743;28;19988;-62
2022/06/09 08:56:39;;;;;;;;;;;;;;;16.20;90.25;96848.13;5072398;28;19916;-63
2022/06/09 08:59:12;;;;;;;;;;;;;;;16.63;89.46;96851.00;5072559;28;20031;-62
2022/06/09 09:01:47;;;;;;;;;;;;;;;16.62;88.77;96859.63;5055501;28;19939;-63
2022/06/09 09:04:13;;;;;;;;;;;;;;;16.53;88.54;96864.34;5072783;28;19916;-63
2022/06/09 09:06:47;;;;;;;;;;;;;;;16.25;88.06;96862.63;5071060;28;19962;-62
2022/06/09 09:09:18;;;;;;;;;;;;;;;16.02;88.03;96856.34;5072479;28;20371;-62
2022/06/09 09:11:44;;;;;;;;;;;;;;;16.01;87.80;96857.47;5072250;28;20014;-62
2022/06/09 09:14:15;;;;;;;;;;;;;;;15.98;88.03;96866.41;5071536;28;19999;-64
2022/06/09 09:17:07;;;;;;;;;;;;;;;15.85;87.75;96862.59;5072339;28;19923;-64
2022/06/09 09:19:44;;;;;;;;;;;;;;;15.94;88.12;96871.78;5067397;28;19916;-63
2022/06/09 09:22:09;;;;;;;;;;;;;;;16.22;88.04;96873.53;5071887;28;19962;-64
2022/06/09 09:24:44;;;;;;;;;;;;;;;16.57;88.13;96876.44;5072298;28;19920;-63
2022/06/09 09:27:28;;;;;;;;;;;;;;;16.80;87.85;96874.38;5072341;28;20338;-62
2022/06/09 09:30:06;;;;;;;;;;;;;;;16.88;87.75;96875.56;5072088;28;20453;-62
2022/06/09 09:32:42;;;;;;;;;;;;;;;16.82;87.31;96895.06;5072547;28;20398;-63
2022/06/09 09:35:11;;;;;;;;;;;;;;;16.90;87.45;96881.56;5072339;28;19923;-62
2022/06/09 09:37:44;;;;;;;;;;;;;;;17.12;87.11;96883.41;5072176;28;19975;-62
2022/06/09 09:40:10;;;;;;;;;;;;;;;17.17;87.28;96886.03;5072189;28;19914;-65
2022/06/09 09:42:37;;;;;;;;;;;;;;;17.04;86.92;96889.75;5072464;28;20021;-64
2022/06/09 09:45:09;;;;;;;;;;;;;;;16.76;86.90;96868.63;5071640;28;19908;-63
2022/06/09 09:47:46;;;;;;;;;;;;;;;16.55;87.28;96889.75;5072398;28;19923;-62
2022/06/09 09:50:18;;;;;;;;;;;;;;;16.42;87.98;96878.50;5072524;28;19916;-62
2022/06/09 09:52:45;;;;;;;;;;;;;;;16.29;88.21;96880.22;5072186;28;19916;-64
2022/06/09 09:55:29;;;;;;;;;;;;;;;16.18;88.51;96886.38;5072012;28;19959;-62
2022/06/09 09:58:09;;;;;;;;;;;;;;;16.06;88.42;96895.25;5072286;28;20389;-61
2022/06/09 10:00:35;;;;;;;;;;;;;;;15.91;88.46;96893.72;5072207;28;19948;-65
2022/06/09 10:08:52;;;;;;;;;;;;;;;16.50;89.58;96889.94;5072841;28;19924;-64
2022/06/09 10:14:25;;;;;;;;;;;;;;;17.22;89.31;96899.72;5071831;28;19924;-64
2022/06/09 10:16:52;;;;;;;;;;;;;;;17.01;88.95;96899.53;5072188;28;20013;-63
2022/06/09 10:19:19;;;;;;;;;;;;;;;16.84;88.75;96900.28;5072050;28;19916;-63
2022/06/09 10:21:56;;;;;;;;;;;;;;;16.92;88.96;96898.72;5071788;28;20375;-64
2022/06/09 10:24:29;;;;;;;;;;;;;;;17.05;88.48;96897.75;5071780;28;19985;-63
2022/06/09 10:26:56;;;;;;;;;;;;;;;17.38;88.79;96908.38;5071906;28;20406;-63
2022/06/09 10:29:48;;;;;;;;;;;;;;;17.71;88.88;96921.78;5071838;28;19916;-65
2022/06/09 10:32:22;;;;;;;;;;;;;;;18.05;88.54;96920.13;5033470;28;19920;-62
2022/06/09 10:35:00;;;;;;;;;;;;;;;18.38;88.46;96914.75;5075034;28;19917;-61
2022/06/09 10:37:37;;;;;;;;;;;;;;;18.63;88.28;96914.19;5075427;28;19920;-65
2022/06/09 10:40:29;;;;;;;;;;;;;;;18.29;88.38;96904.84;5075593;28;19935;-61
2022/06/09 10:43:19;;;;;;;;;;;;;;;18.08;88.89;96929.72;5070190;28;20298;-63
2022/06/09 10:45:48;;;;;;;;;;;;;;;17.77;89.27;96928.78;5075236;28;19916;-63
2022/06/09 10:57:02;;;;;;;;;;;;;;;18.20;90.03;96943.75;5075062;28;20286;-63
2022/06/09 10:59:33;;;;;;;;;;;;;;;18.19;89.99;96940.16;5074399;28;19916;-62
2022/06/09 11:01:59;;;;;;;;;;;;;;;18.09;89.80;96929.38;5072841;28;19920;-63
2022/06/09 11:04:25;;;;;;;;;;;;;;;17.99;90.13;96929.75;5074175;28;19913;-63
2022/06/09 11:06:54;;;;;;;;;;;;;;;17.91;90.16;96933.38;5074585;28;19916;-62
2022/06/09 11:09:25;;;;;;;;;;;;;;;17.95;90.57;96943.47;5074763;28;19947;-61
2022/06/09 11:11:59;;;;;;;;;;;;;;;17.96;90.41;96947.06;5074523;28;19919;-63
2022/06/09 11:14:39;;;;;;;;;;;;;;;17.88;90.24;96956.19;5072110;28;19916;-62
2022/06/09 11:17:05;;;;;;;;;;;;;;;17.72;90.71;96955.88;5070407;28;19946;-63
2022/06/09 11:19:33;;;;;;;;;;;;;;;17.74;90.88;96965.53;5073924;28;19916;-62
2022/06/09 11:22:08;;;;;;;;;;;;;;;17.57;90.38;96962.75;5073412;28;19912;-62
2022/06/09 11:24:52;;;;;;;;;;;;;;;17.49;90.65;96958.78;5073482;28;19920;-63
2022/06/09 11:27:21;;;;;;;;;;;;;;;17.66;91.21;96966.31;5073657;28;19928;-62
2022/06/09 11:29:46;;;;;;;;;;;;;;;17.98;91.38;96967.81;5073565;28;20295;-63
2022/06/09 11:32:27;;;;;;;;;;;;;;;18.07;90.62;96962.25;5073499;28;19936;-64
2022/06/09 11:34:55;;;;;;;;;;;;;;;18.18;90.60;96971.03;5073224;28;19928;-65
2022/06/09 11:37:21;;;;;;;;;;;;;;;18.25;90.52;96973.31;5074029;28;19916;-64
2022/06/09 11:39:56;;;;;;;;;;;;;;;18.22;90.14;96972.00;5073393;28;20026;-64
2022/06/09 11:42:37;;;;;;;;;;;;;;;18.26;90.29;96972.19;5073075;28;20038;-62
2022/06/09 11:45:15;;;;;;;;;;;;;;;18.34;90.30;96979.66;5066148;28;20024;-62
2022/06/09 11:47:41;;;;;;;;;;;;;;;18.34;90.27;96979.66;5057412;28;19927;-62
2022/06/09 11:50:08;;;;;;;;;;;;;;;18.28;89.84;96975.44;5053249;28;19916;-63
2022/06/09 11:52:41;;;;;;;;;;;;;;;17.97;89.42;96990.34;5053292;28;19999;-63
2022/06/09 11:55:28;;;;;;;;;;;;;;;17.50;89.05;96990.97;5053042;28;20002;-62
2022/06/09 11:57:53;;;;;;;;;;;;;;;17.15;89.27;96996.44;5042557;28;19916;-64
2022/06/09 12:00:19;;;;;;;;;;;;;;;16.89;89.41;96999.16;5052902;28;19916;-62
2022/06/09 12:02:44;;;;;;;;;;;;;;;16.74;90.07;96992.03;5053056;28;19916;-62
2022/06/09 12:05:21;;;;;;;;;;;;;;;16.92;90.82;96995.75;5052659;28;19917;-63
2022/06/09 12:07:57;;;;;;;;;;;;;;;17.11;91.14;96995.47;5051836;28;19916;-63
2022/06/09 12:10:27;;;;;;;;;;;;;;;17.30;91.25;96996.00;5050659;28;19963;-62
2022/06/09 12:13:15;;;;;;;;;;;;;;;17.50;91.34;97002.91;5052450;28;19921;-62
2022/06/09 12:15:48;;;;;;;;;;;;;;;17.56;91.02;97000.75;5052803;28;19916;-61
2022/06/09 12:18:15;;;;;;;;;;;;;;;17.62;91.10;97009.75;5053693;28;20015;-65
2022/06/09 12:20:40;;;;;;;;;;;;;;;17.49;90.63;97012.34;5053228;28;19923;-64
2022/06/09 12:23:18;;;;;;;;;;;;;;;17.42;90.82;97008.44;5055640;28;20290;-64
2022/06/09 12:26:02;;;;;;;;;;;;;;;17.37;90.75;97011.34;5064052;28;19927;-66
2022/06/09 12:28:42;;;;;;;;;;;;;;;17.45;91.51;97003.03;5072429;28;19918;-68
2022/06/09 12:31:14;;;;;;;;;;;;;;;17.55;91.32;97014.97;5073104;28;20378;-66
2022/06/09 12:33:53;;;;;;;;;;;;;;;17.65;91.27;97014.63;5073200;28;19917;-68
2022/06/09 12:36:38;;;;;;;;;;;;;;;17.78;91.36;97019.22;5070403;28;19916;-64
2022/06/09 12:39:13;;;;;;;;;;;;;;;17.85;91.13;97016.78;5070737;28;20446;-68
2022/06/09 12:41:40;;;;;;;;;;;;;;;17.89;91.11;97030.00;5068916;28;20402;-66
2022/06/09 12:44:16;;;;;;;;;;;;;;;17.89;90.81;97016.94;5065851;28;19917;-63
2022/06/09 12:46:42;;;;;;;;;;;;;;;17.78;90.95;97019.22;5070220;28;19982;-66
2022/06/09 12:49:15;;;;;;;;;;;;;;;17.70;91.11;97017.28;5069857;28;19923;-64
2022/06/09 12:51:40;;;;;;;;;;;;;;;17.60;90.98;97023.13;5062541;28;19935;-63
2022/06/09 12:54:26;;;;;;;;;;;;;;;17.43;90.74;97021.97;5053939;28;19942;-63
2022/06/09 12:56:56;;;;;;;;;;;;;;;17.32;91.24;97020.63;5048213;28;19923;-65
2022/06/09 12:59:27;;;;;;;;;;;;;;;17.27;91.27;97026.31;5049613;28;19970;-62
2022/06/09 13:01:55;;;;;;;;;;;;;;;17.22;91.10;97018.16;5048762;28;19913;-61
2022/06/09 13:04:22;;;;;;;;;;;;;;;17.15;90.98;97021.41;5049246;28;19938;-64
2022/06/09 13:06:48;;;;;;;;;;;;;;;17.12;90.97;97031.19;5050787;28;19923;-63
2022/06/09 13:09:17;;;;;;;;;;;;;;;17.09;91.19;97029.06;5050388;28;20019;-65
2022/06/09 13:14:32;;;;;;;;;;;;;;;16.86;90.75;97035.78;5050895;28;20038;-64
2022/06/09 13:17:01;;;;;;;;;;;;;;;16.68;90.61;97035.72;5051014;28;19924;-70
2022/06/09 13:19:28;;;;;;;;;;;;;;;16.56;90.54;97041.84;5050128;28;20370;-63
2022/06/09 13:21:54;;;;;;;;;;;;;;;16.44;90.83;97039.66;5051198;28;19917;-64
2022/06/09 13:24:26;;;;;;;;;;;;;;;16.34;90.72;97051.00;5049974;28;19983;-64
2022/06/09 13:26:52;;;;;;;;;;;;;;;16.20;90.47;97059.38;5049514;28;20015;-61
2022/06/09 13:29:23;;;;;;;;;;;;;;;16.16;90.93;97063.09;5051236;28;19917;-64
2022/06/09 13:31:51;;;;;;;;;;;;;;;16.06;90.88;97055.84;5051241;28;19915;-68
2022/06/09 13:34:30;;;;;;;;;;;;;;;15.91;90.70;97057.81;5039535;28;20302;-66
2022/06/09 13:36:56;;;;;;;;;;;;;;;15.85;91.07;97061.84;5069217;28;19923;-67
2022/06/09 13:39:23;;;;;;;;;;;;;;;15.77;90.94;97054.28;5072759;28;19916;-66
2022/06/09 13:41:49;;;;;;;;;;;;;;;15.73;91.27;97058.78;5072432;28;19920;-66
2022/06/09 13:44:26;;;;;;;;;;;;;;;15.73;91.23;97065.13;5053882;28;19920;-66
2022/06/09 13:47:10;;;;;;;;;;;;;;;15.81;91.45;97063.63;5072431;28;19942;-66
2022/06/09 13:49:42;;;;;;;;;;;;;;;15.91;91.78;97073.63;5072516;28;19920;-65
2022/06/09 13:52:26;;;;;;;;;;;;;;;15.95;91.56;97066.34;5072302;28;20051;-64
2022/06/09 13:54:54;;;;;;;;;;;;;;;15.96;91.24;97073.53;5072084;28;19916;-65
2022/06/09 13:57:24;;;;;;;;;;;;;;;16.09;91.75;97072.66;5072502;28;19992;-65
2022/06/09 13:59:50;;;;;;;;;;;;;;;16.32;91.63;97069.88;5072264;28;19922;-63
2022/06/09 14:02:17;;;;;;;;;;;;;;;16.32;91.65;97069.88;5072302;28;20338;-62
2022/06/09 14:04:42;;;;;;;;;;;;;;;16.26;91.56;97071.13;5072243;28;20045;-64
2022/06/09 14:07:16;;;;;;;;;;;;;;;16.15;91.37;97080.81;5072484;28;19920;-66
2022/06/09 14:09:41;;;;;;;;;;;;;;;15.86;90.75;97077.34;5075823;28;19913;-63
2022/06/09 14:12:08;;;;;;;;;;;;;;;15.67;91.01;97069.16;5076163;28;20053;-62
2022/06/09 14:14:33;;;;;;;;;;;;;;;15.62;91.42;97077.56;5075427;28;19942;-62
2022/06/09 14:16:59;;;;;;;;;;;;;;;15.58;91.52;97096.72;5075652;28;19916;-62
2022/06/09 14:19:24;;;;;;;;;;;;;;;15.48;91.47;97085.88;5075815;28;19912;-63
2022/06/09 14:21:50;;;;;;;;;;;;;;;15.38;91.65;97086.91;5075889;28;19916;-62
2022/06/09 14:24:18;;;;;;;;;;;;;;;15.32;91.69;97085.38;5075540;28;19924;-63
2022/06/09 14:26:45;;;;;;;;;;;;;;;15.24;91.77;97092.44;5075756;28;20012;-62
2022/06/09 14:29:12;;;;;;;;;;;;;;;15.17;91.85;97105.88;5075966;28;19939;-63
2022/06/09 14:31:38;;;;;;;;;;;;;;;15.10;91.88;97094.38;5057985;28;19916;-62
2022/06/09 14:34:03;;;;;;;;;;;;;;;15.04;92.05;97099.19;5075167;28;19923;-62
2022/06/09 14:36:29;;;;;;;;;;;;;;;15.00;92.21;97100.13;5075455;28;20398;-63
2022/06/09 14:38:55;;;;;;;;;;;;;;;14.94;92.12;97110.44;5057410;28;19967;-63
2022/06/09 14:41:21;;;;;;;;;;;;;;;14.83;91.92;97100.72;5075673;28;20038;-62
2022/06/09 14:43:48;;;;;;;;;;;;;;;14.76;92.15;97105.81;5075007;28;20306;-62
2022/06/09 14:46:15;;;;;;;;;;;;;;;14.71;92.38;97118.59;5075031;28;19916;-62
2022/06/09 14:48:40;;;;;;;;;;;;;;;14.63;92.19;97110.19;5075318;28;19920;-63